Time;durP1;ratioP1;P1;durP2;ratioP2;P2;SDS_P1;SDS_P2;PMS_P1;PMS_P2;Temp;Humidity;BMP_temperature;BMP_pressure;BME280_temperature;BME280_humidity;BME280_pressure;Samples;Min_cycle;Max_cycle;Signal;HPM_P1;HPM_P2
2023/09/28 00:01:18;;;;;;;7.03;5.63;;;;;;;;;;4892149;29;20187;-77
2023/09/28 00:03:45;;;;;;;6.50;5.90;;;;;;;;;;4895794;29;20203;-77
2023/09/28 00:06:12;;;;;;;6.87;6.13;;;;;;;;;;4891921;29;20242;-77
2023/09/28 00:08:38;;;;;;;6.40;5.80;;;;;;;;;;4892024;29;20207;-77
2023/09/28 00:11:07;;;;;;;6.80;5.30;;;;;;;;;;4886840;29;20187;-77
2023/09/28 00:13:33;;;;;;;7.53;6.00;;;;;;;;;;4895826;29;20215;-77
2023/09/28 00:15:59;;;;;;;7.73;5.80;;;;;;;;;;4896483;29;20274;-77
2023/09/28 00:18:26;;;;;;;6.20;5.60;;;;;;;;;;4894413;29;20216;-77
2023/09/28 00:20:52;;;;;;;6.83;6.23;;;;;;;;;;4895444;29;20270;-77
2023/09/28 00:23:18;;;;;;;7.33;6.30;;;;;;;;;;4910871;29;20214;-77
2023/09/28 00:25:45;;;;;;;7.37;6.47;;;;;;;;;;4894805;29;20199;-77
2023/09/28 00:28:11;;;;;;;8.60;6.10;;;;;;;;;;4891648;29;21027;-77
2023/09/28 00:30:37;;;;;;;6.73;6.03;;;;;;;;;;4893785;29;20270;-77
2023/09/28 00:33:03;;;;;;;6.60;6.00;;;;;;;;;;4894381;29;20250;-77
2023/09/28 00:35:29;;;;;;;6.73;5.60;;;;;;;;;;4893257;29;20681;-77
2023/09/28 00:37:55;;;;;;;6.27;5.50;;;;;;;;;;4895926;29;20210;-77
2023/09/28 00:40:28;;;;;;;6.30;5.70;;;;;;;;;;4895240;29;20647;-77
2023/09/28 00:42:55;;;;;;;6.87;5.60;;;;;;;;;;4890244;29;20211;-77
2023/09/28 00:45:21;;;;;;;7.13;6.37;;;;;;;;;;4895910;29;20191;-77
2023/09/28 00:47:55;;;;;;;6.67;5.50;;;;;;;;;;4894318;29;20589;-77
2023/09/28 00:50:22;;;;;;;6.33;5.73;;;;;;;;;;4892333;29;20202;-77
2023/09/28 00:53:02;;;;;;;6.40;5.77;;;;;;;;;;4893189;29;20206;-77
2023/09/28 00:55:30;;;;;;;6.60;5.70;;;;;;;;;;4891883;29;20724;-77
2023/09/28 00:58:03;;;;;;;6.80;6.10;;;;;;;;;;4879239;29;20488;-77
2023/09/28 01:00:31;;;;;;;7.20;6.50;;;;;;;;;;4892935;29;20717;-77
2023/09/28 01:02:59;;;;;;;7.10;6.40;;;;;;;;;;4888142;29;20192;-77
2023/09/28 01:05:26;;;;;;;7.87;6.50;;;;;;;;;;4870883;29;20561;-77
2023/09/28 01:07:55;;;;;;;7.60;6.17;;;;;;;;;;4891583;29;20229;-77
2023/09/28 01:10:24;;;;;;;6.23;5.63;;;;;;;;;;4907197;29;20183;-77
2023/09/28 01:12:55;;;;;;;8.47;5.87;;;;;;;;;;4886966;29;20187;-77
2023/09/28 01:15:22;;;;;;;6.77;6.07;;;;;;;;;;4892647;29;20226;-77
2023/09/28 01:17:48;;;;;;;6.27;5.47;;;;;;;;;;4892932;29;20290;-77
2023/09/28 01:20:31;;;;;;;6.50;5.90;;;;;;;;;;4874132;29;20402;-77
2023/09/28 01:22:58;;;;;;;7.63;5.90;;;;;;;;;;4892075;29;20191;-77
2023/09/28 01:25:26;;;;;;;6.90;6.20;;;;;;;;;;4890350;29;20520;-77
2023/09/28 01:27:52;;;;;;;6.37;5.77;;;;;;;;;;4893958;29;20271;-77
2023/09/28 01:30:18;;;;;;;6.77;5.70;;;;;;;;;;4886784;29;20659;-77
2023/09/28 01:32:45;;;;;;;6.40;5.73;;;;;;;;;;4890360;29;20204;-77
2023/09/28 01:35:11;;;;;;;6.37;5.63;;;;;;;;;;4906488;29;20718;-77
2023/09/28 01:37:55;;;;;;;6.87;6.10;;;;;;;;;;4857954;29;20210;-77
2023/09/28 01:40:21;;;;;;;7.23;6.50;;;;;;;;;;4891757;29;20194;-77
2023/09/28 01:42:48;;;;;;;9.70;5.57;;;;;;;;;;4911218;23;20237;-76
2023/09/28 01:45:15;;;;;;;6.80;6.10;;;;;;;;;;4906041;29;20196;-76
2023/09/28 01:47:41;;;;;;;7.60;5.67;;;;;;;;;;4910267;29;20226;-76
2023/09/28 01:50:07;;;;;;;6.47;5.87;;;;;;;;;;4902886;29;20199;-76
2023/09/28 01:52:33;;;;;;;6.50;5.80;;;;;;;;;;4889728;29;20202;-76
2023/09/28 01:55:00;;;;;;;6.43;5.50;;;;;;;;;;4902687;29;20575;-76
2023/09/28 01:57:26;;;;;;;8.63;5.73;;;;;;;;;;4908767;29;20191;-76
2023/09/28 01:59:52;;;;;;;10.43;5.53;;;;;;;;;;4898567;29;20183;-76
2023/09/28 02:02:20;;;;;;;6.13;5.50;;;;;;;;;;4903639;29;20538;-76
2023/09/28 02:04:46;;;;;;;6.20;5.57;;;;;;;;;;4894378;29;20646;-76
2023/09/28 02:07:12;;;;;;;6.47;5.87;;;;;;;;;;4912583;29;20193;-76
2023/09/28 02:09:39;;;;;;;6.77;5.83;;;;;;;;;;4904617;29;20210;-76
2023/09/28 02:12:07;;;;;;;6.90;5.53;;;;;;;;;;4909935;29;20198;-76
2023/09/28 02:14:33;;;;;;;7.07;5.80;;;;;;;;;;4912076;29;20221;-76
2023/09/28 02:16:59;;;;;;;6.97;5.97;;;;;;;;;;4909003;29;20270;-76
2023/09/28 02:19:25;;;;;;;6.23;5.27;;;;;;;;;;4905726;29;20658;-76
2023/09/28 02:21:52;;;;;;;9.27;6.07;;;;;;;;;;4902452;29;20190;-76
2023/09/28 02:24:18;;;;;;;7.87;5.67;;;;;;;;;;4899442;29;20654;-76
2023/09/28 02:26:44;;;;;;;6.47;5.73;;;;;;;;;;4902168;29;21054;-76
2023/09/28 02:29:11;;;;;;;8.03;6.20;;;;;;;;;;4900946;29;20215;-76
2023/09/28 02:31:41;;;;;;;9.17;6.37;;;;;;;;;;4901641;29;20794;-76
2023/09/28 02:34:07;;;;;;;6.90;5.80;;;;;;;;;;4900348;29;20211;-76
2023/09/28 02:36:35;;;;;;;6.70;6.10;;;;;;;;;;4900403;29;20225;-76
2023/09/28 02:39:12;;;;;;;6.80;5.97;;;;;;;;;;4899172;29;20204;-76
2023/09/28 02:41:39;;;;;;;6.67;5.80;;;;;;;;;;4907188;29;20208;-76
2023/09/28 02:44:06;;;;;;;8.37;5.50;;;;;;;;;;4903966;29;20323;-76
2023/09/28 02:46:32;;;;;;;6.47;5.80;;;;;;;;;;4902638;29;20666;-76
2023/09/28 02:48:58;;;;;;;6.70;5.70;;;;;;;;;;4911389;29;20228;-76
2023/09/28 02:51:25;;;;;;;6.70;6.00;;;;;;;;;;4905923;29;20583;-76
2023/09/28 02:53:51;;;;;;;6.23;5.63;;;;;;;;;;4899984;29;20312;-76
2023/09/28 02:56:17;;;;;;;6.17;5.60;;;;;;;;;;4910248;29;20190;-76
2023/09/28 02:58:46;;;;;;;7.80;7.00;;;;;;;;;;4912854;29;20623;-76
2023/09/28 03:01:12;;;;;;;7.40;6.77;;;;;;;;;;4909540;29;20647;-76
2023/09/28 03:03:39;;;;;;;6.90;6.20;;;;;;;;;;4913360;29;20199;-76
2023/09/28 03:06:05;;;;;;;7.80;6.70;;;;;;;;;;4897839;29;20191;-76
2023/09/28 03:08:31;;;;;;;8.00;6.20;;;;;;;;;;4910837;29;20390;-76
2023/09/28 03:10:58;;;;;;;6.47;5.80;;;;;;;;;;4911362;29;20243;-76
2023/09/28 03:13:27;;;;;;;7.07;5.77;;;;;;;;;;4905624;29;20202;-76
2023/09/28 03:15:53;;;;;;;6.13;5.53;;;;;;;;;;4905365;29;20770;-76
2023/09/28 03:18:19;;;;;;;7.40;6.33;;;;;;;;;;4909257;29;20199;-76
2023/09/28 03:20:46;;;;;;;7.10;6.40;;;;;;;;;;4910132;29;21603;-76
2023/09/28 03:23:12;;;;;;;7.67;6.87;;;;;;;;;;4913532;29;20186;-76
2023/09/28 03:25:38;;;;;;;6.97;6.10;;;;;;;;;;4913360;29;20287;-76
2023/09/28 03:28:05;;;;;;;7.53;6.43;;;;;;;;;;4915134;29;20668;-76
2023/09/28 03:30:31;;;;;;;6.80;6.10;;;;;;;;;;4914420;29;20191;-76
2023/09/28 03:32:58;;;;;;;9.10;5.57;;;;;;;;;;4911347;29;20198;-76
2023/09/28 03:35:24;;;;;;;7.30;6.17;;;;;;;;;;4909814;29;20214;-75
2023/09/28 03:37:55;;;;;;;7.43;6.17;;;;;;;;;;4912798;29;20298;-76
2023/09/28 03:40:21;;;;;;;7.40;6.70;;;;;;;;;;4906716;29;20253;-76
2023/09/28 03:42:50;;;;;;;7.17;6.43;;;;;;;;;;4908422;29;20216;-76
2023/09/28 03:45:21;;;;;;;7.43;6.50;;;;;;;;;;4914822;29;20205;-76
2023/09/28 03:47:48;;;;;;;6.57;5.87;;;;;;;;;;4905235;29;20229;-76
2023/09/28 03:50:15;;;;;;;6.67;6.07;;;;;;;;;;4914235;29;20234;-76
2023/09/28 03:52:42;;;;;;;7.57;6.50;;;;;;;;;;4907296;29;20550;-76
2023/09/28 03:55:14;;;;;;;7.10;6.30;;;;;;;;;;4914489;29;20301;-76
2023/09/28 03:57:42;;;;;;;7.93;6.30;;;;;;;;;;4907820;29;20230;-76
2023/09/28 04:00:12;;;;;;;7.20;5.70;;;;;;;;;;4914843;29;20357;-76
2023/09/28 04:02:39;;;;;;;7.50;5.83;;;;;;;;;;4898562;29;20191;-76
2023/09/28 04:05:05;;;;;;;8.27;6.30;;;;;;;;;;4925287;29;20662;-76
2023/09/28 04:07:31;;;;;;;7.20;6.33;;;;;;;;;;4921824;29;20190;-76
2023/09/28 04:09:57;;;;;;;11.13;6.60;;;;;;;;;;4914783;29;20689;-76
2023/09/28 04:12:24;;;;;;;7.60;5.93;;;;;;;;;;4880653;29;21517;-76
2023/09/28 04:14:50;;;;;;;7.10;6.40;;;;;;;;;;4897417;29;20236;-76
2023/09/28 04:17:17;;;;;;;7.10;5.60;;;;;;;;;;4890222;29;20187;-76
2023/09/28 04:19:44;;;;;;;6.73;6.13;;;;;;;;;;4897177;29;20195;-76
2023/09/28 04:22:10;;;;;;;6.93;6.23;;;;;;;;;;4875996;29;21045;-76
2023/09/28 04:24:36;;;;;;;7.80;7.00;;;;;;;;;;4912051;29;20193;-76
2023/09/28 04:27:02;;;;;;;7.07;5.97;;;;;;;;;;4907712;29;20562;-76
2023/09/28 04:29:28;;;;;;;6.60;5.87;;;;;;;;;;4900350;29;20577;-76
2023/09/28 04:31:54;;;;;;;8.07;6.03;;;;;;;;;;4902411;29;20213;-76
2023/09/28 04:34:21;;;;;;;7.50;5.80;;;;;;;;;;4905907;29;20249;-76
2023/09/28 04:36:49;;;;;;;7.77;6.13;;;;;;;;;;4902600;29;20187;-76
2023/09/28 04:39:17;;;;;;;7.17;6.47;;;;;;;;;;4914649;29;20222;-76
2023/09/28 04:41:45;;;;;;;7.00;6.30;;;;;;;;;;4907176;29;20222;-76
2023/09/28 04:44:11;;;;;;;7.33;5.70;;;;;;;;;;4903384;29;20191;-76
2023/09/28 04:46:38;;;;;;;7.10;6.33;;;;;;;;;;4909791;29;20670;-76
2023/09/28 04:49:04;;;;;;;7.00;6.30;;;;;;;;;;4901121;29;20198;-76
2023/09/28 04:51:30;;;;;;;9.37;6.60;;;;;;;;;;4902322;29;20201;-76
2023/09/28 04:53:56;;;;;;;7.73;6.20;;;;;;;;;;4904461;29;20213;-76
2023/09/28 04:56:22;;;;;;;7.13;6.13;;;;;;;;;;4901690;29;20672;-76
2023/09/28 04:58:48;;;;;;;7.37;5.83;;;;;;;;;;4901338;29;20198;-76
2023/09/28 05:01:15;;;;;;;6.10;5.50;;;;;;;;;;4901984;29;20214;-76
2023/09/28 05:03:41;;;;;;;11.00;5.80;;;;;;;;;;4904957;29;20261;-76
2023/09/28 05:06:07;;;;;;;6.50;5.13;;;;;;;;;;4905369;29;20302;-76
2023/09/28 05:08:33;;;;;;;5.50;5.03;;;;;;;;;;4906086;29;20734;-76
2023/09/28 05:10:59;;;;;;;8.33;5.37;;;;;;;;;;4904639;29;20195;-74
2023/09/28 05:13:28;;;;;;;5.87;5.20;;;;;;;;;;4904685;29;20191;-75
2023/09/28 05:15:54;;;;;;;6.50;5.23;;;;;;;;;;4908798;29;20182;-75
2023/09/28 05:18:20;;;;;;;5.57;5.00;;;;;;;;;;4915353;29;20207;-74
2023/09/28 05:20:46;;;;;;;6.73;5.93;;;;;;;;;;4913698;29;20186;-78
2023/09/28 05:23:19;;;;;;;6.97;6.13;;;;;;;;;;4895453;29;20194;-85
2023/09/28 05:25:45;;;;;;;8.73;5.50;;;;;;;;;;4894244;29;20187;-74
2023/09/28 05:28:11;;;;;;;6.53;5.70;;;;;;;;;;4919175;29;20211;-73
2023/09/28 05:30:38;;;;;;;7.23;6.20;;;;;;;;;;4904828;29;20209;-74
2023/09/28 05:33:04;;;;;;;6.33;5.73;;;;;;;;;;4911186;29;20186;-74
2023/09/28 05:35:30;;;;;;;5.73;5.13;;;;;;;;;;4904205;29;20209;-74
2023/09/28 05:37:56;;;;;;;6.27;5.20;;;;;;;;;;4915851;29;20681;-74
2023/09/28 05:40:23;;;;;;;5.93;5.20;;;;;;;;;;4882159;29;20190;-74
2023/09/28 05:42:49;;;;;;;7.47;4.90;;;;;;;;;;4904426;29;20210;-74
2023/09/28 05:45:15;;;;;;;5.97;5.37;;;;;;;;;;4912146;29;20213;-73
2023/09/28 05:47:41;;;;;;;9.20;5.40;;;;;;;;;;4911587;29;20218;-74
2023/09/28 05:50:08;;;;;;;8.43;5.50;;;;;;;;;;4923545;29;20517;-74
2023/09/28 05:52:34;;;;;;;5.90;5.30;;;;;;;;;;4906368;29;20614;-74
2023/09/28 05:55:01;;;;;;;8.03;5.20;;;;;;;;;;4907213;29;20273;-74
2023/09/28 05:57:28;;;;;;;6.80;4.80;;;;;;;;;;4909705;29;20182;-74
2023/09/28 05:59:54;;;;;;;7.03;5.20;;;;;;;;;;4912368;29;20619;-74
2023/09/28 06:02:20;;;;;;;6.80;5.73;;;;;;;;;;4909293;29;20242;-74
2023/09/28 06:04:47;;;;;;;6.80;5.43;;;;;;;;;;4911375;29;20191;-74
2023/09/28 06:07:14;;;;;;;7.53;5.67;;;;;;;;;;4928061;29;20306;-74
2023/09/28 06:09:41;;;;;;;6.83;5.30;;;;;;;;;;4903064;29;20225;-73
2023/09/28 06:12:07;;;;;;;5.83;5.20;;;;;;;;;;4904540;29;20194;-74
2023/09/28 06:14:34;;;;;;;6.63;5.40;;;;;;;;;;4911615;29;20237;-74
2023/09/28 06:17:00;;;;;;;8.00;5.10;;;;;;;;;;4907617;29;20218;-73
2023/09/28 06:19:27;;;;;;;7.67;5.10;;;;;;;;;;4912796;29;20207;-73
2023/09/28 06:21:54;;;;;;;5.13;4.63;;;;;;;;;;4911208;29;20657;-74
2023/09/28 06:24:20;;;;;;;6.20;5.30;;;;;;;;;;4917271;29;20699;-74
2023/09/28 06:26:48;;;;;;;6.07;5.13;;;;;;;;;;4916884;29;20190;-74
2023/09/28 06:29:15;;;;;;;7.17;5.40;;;;;;;;;;4916505;29;20210;-74
2023/09/28 06:31:41;;;;;;;8.63;5.53;;;;;;;;;;4910634;29;20592;-74
2023/09/28 06:34:08;;;;;;;7.47;5.00;;;;;;;;;;4915897;29;20222;-74
2023/09/28 06:36:34;;;;;;;6.40;4.70;;;;;;;;;;4899575;29;20213;-74
2023/09/28 06:39:00;;;;;;;7.53;4.90;;;;;;;;;;4915466;29;20289;-74
2023/09/28 06:41:27;;;;;;;6.67;5.33;;;;;;;;;;4918833;29;20202;-74
2023/09/28 06:43:53;;;;;;;7.43;5.23;;;;;;;;;;4913274;29;20194;-74
2023/09/28 06:46:21;;;;;;;5.83;5.10;;;;;;;;;;4914658;29;20190;-74
2023/09/28 06:48:49;;;;;;;6.63;5.10;;;;;;;;;;4916410;29;20214;-74
2023/09/28 06:51:16;;;;;;;5.80;5.20;;;;;;;;;;4895966;29;20191;-74
2023/09/28 06:53:42;;;;;;;7.80;5.47;;;;;;;;;;4908585;29;20214;-74
2023/09/28 06:56:08;;;;;;;5.87;5.27;;;;;;;;;;4901804;29;20218;-74
2023/09/28 06:58:34;;;;;;;8.50;5.50;;;;;;;;;;4916163;29;20264;-74
2023/09/28 07:01:00;;;;;;;6.63;5.23;;;;;;;;;;4916014;29;20263;-74
2023/09/28 07:03:27;;;;;;;8.73;5.20;;;;;;;;;;4915299;29;20598;-74
2023/09/28 07:05:53;;;;;;;6.07;5.33;;;;;;;;;;4895997;29;20655;-74
2023/09/28 07:08:19;;;;;;;9.80;5.67;;;;;;;;;;4907730;29;20302;-74
2023/09/28 07:10:45;;;;;;;7.07;5.60;;;;;;;;;;4915593;29;20190;-74
2023/09/28 07:13:12;;;;;;;6.50;5.50;;;;;;;;;;4896399;29;20191;-75
2023/09/28 07:15:38;;;;;;;9.13;5.37;;;;;;;;;;4915814;29;20256;-74
2023/09/28 07:18:04;;;;;;;6.13;5.43;;;;;;;;;;4915059;29;20206;-75
2023/09/28 07:20:31;;;;;;;6.60;5.23;;;;;;;;;;4909397;29;20191;-75
2023/09/28 07:22:57;;;;;;;6.60;5.50;;;;;;;;;;4912078;29;20221;-75
2023/09/28 07:25:25;;;;;;;5.97;5.10;;;;;;;;;;4914232;29;20285;-75
2023/09/28 07:27:54;;;;;;;6.77;4.93;;;;;;;;;;4912088;29;20217;-74
2023/09/28 07:30:22;;;;;;;7.07;5.27;;;;;;;;;;4913064;29;20182;-75
2023/09/28 07:32:49;;;;;;;6.40;5.10;;;;;;;;;;4896659;29;21097;-75
2023/09/28 07:35:16;;;;;;;6.83;5.37;;;;;;;;;;4906895;29;20214;-74
2023/09/28 07:37:42;;;;;;;6.97;5.47;;;;;;;;;;4909775;29;20217;-75
2023/09/28 07:40:12;;;;;;;8.80;5.80;;;;;;;;;;4889396;29;20188;-75
2023/09/28 07:42:41;;;;;;;7.10;5.60;;;;;;;;;;4909566;29;20257;-75
2023/09/28 07:45:09;;;;;;;7.97;5.30;;;;;;;;;;4911648;29;20192;-74
2023/09/28 07:47:35;;;;;;;5.70;5.10;;;;;;;;;;4909977;29;20269;-75
2023/09/28 07:50:01;;;;;;;7.90;5.37;;;;;;;;;;4914978;29;20199;-75
2023/09/28 07:52:28;;;;;;;6.47;5.47;;;;;;;;;;4908859;29;20298;-74
2023/09/28 07:54:54;;;;;;;6.30;5.30;;;;;;;;;;4924358;29;20303;-75
2023/09/28 07:57:22;;;;;;;6.17;5.13;;;;;;;;;;4915359;29;20198;-75
2023/09/28 07:59:48;;;;;;;6.93;5.40;;;;;;;;;;4905016;29;20661;-75
2023/09/28 08:02:14;;;;;;;6.27;5.20;;;;;;;;;;4912267;29;20661;-75
2023/09/28 08:04:40;;;;;;;5.73;4.90;;;;;;;;;;4910952;29;20202;-74
2023/09/28 08:07:07;;;;;;;6.13;5.10;;;;;;;;;;4898184;29;20199;-75
2023/09/28 08:09:33;;;;;;;7.10;5.50;;;;;;;;;;4907449;29;20219;-75
2023/09/28 08:11:59;;;;;;;7.67;5.47;;;;;;;;;;4911029;29;20666;-75
2023/09/28 08:14:26;;;;;;;6.63;5.50;;;;;;;;;;4906584;29;20210;-75
2023/09/28 08:16:52;;;;;;;6.70;5.80;;;;;;;;;;4915179;29;20186;-75
2023/09/28 08:19:19;;;;;;;6.40;5.30;;;;;;;;;;4914574;29;20307;-75
2023/09/28 08:21:46;;;;;;;7.23;5.60;;;;;;;;;;4914908;29;20668;-75
2023/09/28 08:24:12;;;;;;;6.67;5.20;;;;;;;;;;4909448;29;20765;-75
2023/09/28 08:26:38;;;;;;;9.70;5.33;;;;;;;;;;4912578;29;20190;-75
2023/09/28 08:29:05;;;;;;;8.37;5.03;;;;;;;;;;4904316;29;20221;-75
2023/09/28 08:31:31;;;;;;;9.57;5.57;;;;;;;;;;4914789;29;20186;-75
2023/09/28 08:34:02;;;;;;;5.40;4.90;;;;;;;;;;4882554;29;20236;-75
2023/09/28 08:36:29;;;;;;;6.73;5.37;;;;;;;;;;4914982;29;20195;-75
2023/09/28 08:38:56;;;;;;;5.97;5.10;;;;;;;;;;4909242;29;20214;-75
2023/09/28 08:41:27;;;;;;;6.07;5.27;;;;;;;;;;4914083;29;20268;-75
2023/09/28 08:43:57;;;;;;;6.63;5.33;;;;;;;;;;4905949;29;20187;-75
2023/09/28 08:46:25;;;;;;;6.57;5.27;;;;;;;;;;4906930;29;20191;-75
2023/09/28 08:48:52;;;;;;;6.73;5.60;;;;;;;;;;4917449;29;20233;-75
2023/09/28 08:51:19;;;;;;;8.10;5.93;;;;;;;;;;4908451;29;20203;-74
2023/09/28 08:53:48;;;;;;;7.17;5.60;;;;;;;;;;4907712;29;20210;-74
2023/09/28 08:56:14;;;;;;;6.13;5.23;;;;;;;;;;4914865;29;20330;-75
2023/09/28 08:58:42;;;;;;;5.50;5.00;;;;;;;;;;4896142;29;20219;-75
2023/09/28 09:01:08;;;;;;;6.97;4.70;;;;;;;;;;4914104;29;20528;-75
2023/09/28 09:03:35;;;;;;;6.63;5.10;;;;;;;;;;4914670;29;20210;-75
2023/09/28 09:06:02;;;;;;;6.33;4.80;;;;;;;;;;4913514;29;20195;-74
2023/09/28 09:08:29;;;;;;;6.23;4.80;;;;;;;;;;4913203;29;20203;-75
2023/09/28 09:10:56;;;;;;;5.13;4.13;;;;;;;;;;4913733;29;20205;-75
2023/09/28 09:13:22;;;;;;;5.70;4.57;;;;;;;;;;4907300;29;20199;-75
2023/09/28 09:15:49;;;;;;;6.20;4.60;;;;;;;;;;4908281;29;20241;-75
2023/09/28 09:18:16;;;;;;;5.53;4.90;;;;;;;;;;4908381;29;20213;-75
2023/09/28 09:20:42;;;;;;;8.27;4.73;;;;;;;;;;4907642;29;20242;-75
2023/09/28 09:23:12;;;;;;;7.80;4.20;;;;;;;;;;4913409;29;20194;-75
2023/09/28 09:25:43;;;;;;;4.70;4.20;;;;;;;;;;4911012;29;20563;-75
2023/09/28 09:28:09;;;;;;;7.13;4.47;;;;;;;;;;4908881;29;20682;-75
2023/09/28 09:30:35;;;;;;;6.07;4.40;;;;;;;;;;4912907;29;20194;-75
2023/09/28 09:33:04;;;;;;;6.30;4.50;;;;;;;;;;4912092;29;20191;-75
2023/09/28 09:35:31;;;;;;;4.30;3.90;;;;;;;;;;4913698;29;20644;-75
2023/09/28 09:37:57;;;;;;;5.90;4.30;;;;;;;;;;4902765;29;20199;-75
2023/09/28 09:40:23;;;;;;;4.73;4.23;;;;;;;;;;4907305;29;20221;-76
2023/09/28 09:42:49;;;;;;;5.73;4.10;;;;;;;;;;4909423;29;20203;-75
2023/09/28 09:45:19;;;;;;;6.67;4.10;;;;;;;;;;4916523;29;20273;-75
2023/09/28 09:47:47;;;;;;;5.20;4.20;;;;;;;;;;4911624;29;20225;-75
2023/09/28 09:50:14;;;;;;;5.03;4.40;;;;;;;;;;4909487;29;20198;-75
2023/09/28 09:52:44;;;;;;;6.53;4.27;;;;;;;;;;4920664;29;20729;-75
2023/09/28 09:55:10;;;;;;;5.30;4.23;;;;;;;;;;4909321;29;20270;-74
2023/09/28 09:57:38;;;;;;;7.17;4.20;;;;;;;;;;4895550;29;20708;-74
2023/09/28 10:00:07;;;;;;;5.37;3.80;;;;;;;;;;4907856;29;20688;-74
2023/09/28 10:02:36;;;;;;;7.07;4.20;;;;;;;;;;4921405;29;20203;-74
2023/09/28 10:05:04;;;;;;;8.60;4.23;;;;;;;;;;4887178;29;20199;-75
2023/09/28 10:07:33;;;;;;;4.83;4.10;;;;;;;;;;4911734;29;20194;-74
2023/09/28 10:10:00;;;;;;;5.87;4.00;;;;;;;;;;4900887;29;20193;-74
2023/09/28 10:12:27;;;;;;;5.43;4.10;;;;;;;;;;4903405;29;20210;-75
2023/09/28 10:14:56;;;;;;;4.80;4.07;;;;;;;;;;4896104;29;20697;-74
2023/09/28 10:17:27;;;;;;;4.83;4.33;;;;;;;;;;4896930;29;20197;-73
2023/09/28 10:19:57;;;;;;;5.37;4.00;;;;;;;;;;4908194;29;20219;-74
2023/09/28 10:22:23;;;;;;;5.43;3.93;;;;;;;;;;4916734;29;20203;-75
2023/09/28 10:24:49;;;;;;;5.20;3.83;;;;;;;;;;4911516;29;20195;-75
2023/09/28 10:27:16;;;;;;;6.00;4.00;;;;;;;;;;4902175;29;20226;-74
2023/09/28 10:29:42;;;;;;;5.33;3.80;;;;;;;;;;4899533;29;20679;-74
2023/09/28 10:32:27;;;;;;;4.10;3.70;;;;;;;;;;4910637;29;20195;-74
2023/09/28 10:35:13;;;;;;;4.50;3.93;;;;;;;;;;4904126;29;20273;-74
2023/09/28 10:37:39;;;;;;;7.00;3.57;;;;;;;;;;4909481;29;20611;-74
2023/09/28 10:40:06;;;;;;;4.20;3.53;;;;;;;;;;4905049;29;20192;-75
2023/09/28 10:42:34;;;;;;;5.13;3.80;;;;;;;;;;4906981;29;20195;-75
2023/09/28 10:45:02;;;;;;;6.83;4.20;;;;;;;;;;4906898;29;20192;-75
2023/09/28 10:47:31;;;;;;;4.50;3.77;;;;;;;;;;4903181;29;20200;-75
2023/09/28 10:50:01;;;;;;;7.77;4.20;;;;;;;;;;4909267;29;20189;-75
2023/09/28 10:52:29;;;;;;;7.13;3.90;;;;;;;;;;4912330;29;20604;-77
2023/09/28 10:54:55;;;;;;;6.50;4.30;;;;;;;;;;4903006;29;20275;-79
2023/09/28 10:57:32;;;;;;;7.27;3.93;;;;;;;;;;4909543;29;20235;-73
2023/09/28 11:00:12;;;;;;;3.87;3.53;;;;;;;;;;4913328;29;20180;-73
2023/09/28 11:02:38;;;;;;;5.83;4.00;;;;;;;;;;4911404;29;20659;-73
2023/09/28 11:05:08;;;;;;;6.20;3.83;;;;;;;;;;4908302;29;20540;-73
2023/09/28 11:07:35;;;;;;;4.87;3.70;;;;;;;;;;4911294;29;20997;-73
2023/09/28 11:10:02;;;;;;;5.37;3.40;;;;;;;;;;4913936;29;20634;-73
2023/09/28 11:12:28;;;;;;;4.03;3.63;;;;;;;;;;4913132;29;20219;-73
2023/09/28 11:14:58;;;;;;;5.63;3.93;;;;;;;;;;4914370;29;20481;-73
2023/09/28 11:17:24;;;;;;;6.43;3.53;;;;;;;;;;4914996;29;20271;-73
2023/09/28 11:19:51;;;;;;;5.27;3.40;;;;;;;;;;4914230;29;20264;-73
2023/09/28 11:22:18;;;;;;;4.97;3.77;;;;;;;;;;4908769;29;20307;-73
2023/09/28 11:24:46;;;;;;;4.20;3.33;;;;;;;;;;4915618;29;20656;-73
2023/09/28 11:27:12;;;;;;;6.33;3.27;;;;;;;;;;4915731;29;20195;-73
2023/09/28 11:29:39;;;;;;;4.33;3.40;;;;;;;;;;4916255;29;20552;-73
2023/09/28 11:32:05;;;;;;;6.27;3.40;;;;;;;;;;4916760;29;20609;-73
2023/09/28 11:34:35;;;;;;;5.03;3.27;;;;;;;;;;4915280;29;20221;-73
2023/09/28 11:37:01;;;;;;;3.73;3.30;;;;;;;;;;4916530;29;20185;-73
2023/09/28 11:39:28;;;;;;;4.53;3.47;;;;;;;;;;4915078;29;20218;-73
2023/09/28 11:42:00;;;;;;;4.43;3.50;;;;;;;;;;4916371;29;20221;-73
2023/09/28 11:44:27;;;;;;;4.80;3.43;;;;;;;;;;4915396;29;20202;-73
2023/09/28 11:46:53;;;;;;;5.63;3.60;;;;;;;;;;4915254;29;20186;-73
2023/09/28 11:49:21;;;;;;;4.33;3.80;;;;;;;;;;4916039;29;20210;-73
2023/09/28 11:51:47;;;;;;;4.87;3.43;;;;;;;;;;4913199;29;20638;-73
2023/09/28 11:54:13;;;;;;;4.00;3.50;;;;;;;;;;4915074;29;20222;-73
2023/09/28 11:56:46;;;;;;;4.27;3.70;;;;;;;;;;4897394;29;20195;-73
2023/09/28 11:59:15;;;;;;;4.30;3.17;;;;;;;;;;4915856;29;20265;-73
2023/09/28 12:01:45;;;;;;;6.23;3.20;;;;;;;;;;4912940;29;20195;-73
2023/09/28 12:04:11;;;;;;;4.17;3.23;;;;;;;;;;4916258;29;20190;-73
2023/09/28 12:06:38;;;;;;;4.93;3.40;;;;;;;;;;4915016;29;20201;-73
2023/09/28 12:09:08;;;;;;;3.47;3.17;;;;;;;;;;4914715;29;20578;-73
2023/09/28 12:11:37;;;;;;;4.37;3.70;;;;;;;;;;4915716;29;20282;-73
2023/09/28 12:14:03;;;;;;;4.77;3.40;;;;;;;;;;4914360;29;20312;-73
2023/09/28 12:16:29;;;;;;;4.83;3.50;;;;;;;;;;4915885;29;20288;-73
2023/09/28 12:18:56;;;;;;;3.67;3.30;;;;;;;;;;4914522;29;20210;-73
2023/09/28 12:21:22;;;;;;;5.23;3.30;;;;;;;;;;4914459;29;20202;-74
2023/09/28 12:23:48;;;;;;;3.97;3.57;;;;;;;;;;4914710;29;20187;-74
2023/09/28 12:26:15;;;;;;;4.60;3.40;;;;;;;;;;4914086;29;20180;-73
2023/09/28 12:28:41;;;;;;;3.77;3.00;;;;;;;;;;4915400;29;20697;-73
2023/09/28 12:31:08;;;;;;;4.07;3.53;;;;;;;;;;4913899;29;20193;-73
2023/09/28 12:33:36;;;;;;;4.90;3.17;;;;;;;;;;4915324;29;20192;-73
2023/09/28 12:36:02;;;;;;;4.67;3.50;;;;;;;;;;4915293;29;20194;-73
2023/09/28 12:38:29;;;;;;;6.07;3.50;;;;;;;;;;4905615;29;20716;-74
2023/09/28 12:40:55;;;;;;;3.60;3.30;;;;;;;;;;4914783;29;20179;-73
2023/09/28 12:43:21;;;;;;;3.47;3.17;;;;;;;;;;4915055;29;20277;-73
2023/09/28 12:45:48;;;;;;;3.50;3.20;;;;;;;;;;4915437;29;20202;-73
2023/09/28 12:48:17;;;;;;;3.50;3.20;;;;;;;;;;4929949;29;20571;-74
2023/09/28 12:50:45;;;;;;;3.90;3.13;;;;;;;;;;4913750;29;20217;-74
2023/09/28 12:53:11;;;;;;;4.67;3.40;;;;;;;;;;4915138;29;20200;-73
2023/09/28 12:55:37;;;;;;;4.13;3.30;;;;;;;;;;4913720;29;20247;-74
2023/09/28 12:58:04;;;;;;;4.43;3.47;;;;;;;;;;4914857;29;20241;-74
2023/09/28 13:00:30;;;;;;;4.80;3.10;;;;;;;;;;4914686;29;20201;-73
2023/09/28 13:02:57;;;;;;;3.53;3.20;;;;;;;;;;4914829;29;20193;-73
2023/09/28 13:05:23;;;;;;;3.70;3.27;;;;;;;;;;4913800;29;20645;-73
2023/09/28 13:07:49;;;;;;;6.03;3.10;;;;;;;;;;4914456;29;20586;-73
2023/09/28 13:10:21;;;;;;;4.87;3.77;;;;;;;;;;4916242;29;20191;-73
2023/09/28 13:12:49;;;;;;;4.43;3.23;;;;;;;;;;4915064;29;20225;-73
2023/09/28 13:15:15;;;;;;;4.47;3.30;;;;;;;;;;4915853;29;20615;-73
2023/09/28 13:17:42;;;;;;;3.70;3.40;;;;;;;;;;4914890;29;20206;-73
2023/09/28 13:20:09;;;;;;;3.73;3.13;;;;;;;;;;4914840;29;20187;-73
2023/09/28 13:22:39;;;;;;;5.47;3.60;;;;;;;;;;4916191;29;20175;-73
2023/09/28 13:25:08;;;;;;;4.37;3.23;;;;;;;;;;4913917;29;20192;-73
2023/09/28 13:27:34;;;;;;;3.37;2.90;;;;;;;;;;4915512;29;20215;-73
2023/09/28 13:30:06;;;;;;;4.37;2.80;;;;;;;;;;4915819;29;20196;-73
2023/09/28 13:32:33;;;;;;;4.67;3.00;;;;;;;;;;4915933;29;20254;-73
2023/09/28 13:34:59;;;;;;;3.07;2.77;;;;;;;;;;4898591;29;20203;-73
2023/09/28 13:37:25;;;;;;;4.87;3.17;;;;;;;;;;4915460;29;20190;-73
2023/09/28 13:39:53;;;;;;;3.80;3.03;;;;;;;;;;4914316;29;20440;-73
2023/09/28 13:42:20;;;;;;;3.30;3.00;;;;;;;;;;4922681;23;20242;-75
2023/09/28 13:44:46;;;;;;;5.27;3.17;;;;;;;;;;4913275;29;20209;-76
2023/09/28 13:47:13;;;;;;;3.97;3.27;;;;;;;;;;4914748;29;20216;-75
2023/09/28 13:49:39;;;;;;;6.23;3.10;;;;;;;;;;4910503;29;20269;-75
2023/09/28 13:52:08;;;;;;;4.10;3.07;;;;;;;;;;4895608;29;20249;-75
2023/09/28 13:54:34;;;;;;;4.93;3.20;;;;;;;;;;4894020;29;20233;-75
2023/09/28 13:57:07;;;;;;;3.50;3.00;;;;;;;;;;4894046;29;20204;-75
2023/09/28 13:59:34;;;;;;;4.87;3.37;;;;;;;;;;4895155;29;20310;-75
2023/09/28 14:02:00;;;;;;;7.33;3.50;;;;;;;;;;4895428;29;20214;-75
2023/09/28 14:04:29;;;;;;;3.30;3.00;;;;;;;;;;4893913;29;20720;-75
2023/09/28 14:06:55;;;;;;;3.90;3.00;;;;;;;;;;4894051;29;20189;-75
2023/09/28 14:09:26;;;;;;;6.73;3.00;;;;;;;;;;4895107;29;20279;-75
2023/09/28 14:11:53;;;;;;;4.00;3.10;;;;;;;;;;4895034;29;20271;-75
2023/09/28 14:14:19;;;;;;;4.17;3.27;;;;;;;;;;4895321;29;20214;-75
2023/09/28 14:16:45;;;;;;;4.07;3.30;;;;;;;;;;4895197;29;20481;-75
2023/09/28 14:19:13;;;;;;;3.50;3.20;;;;;;;;;;4895182;29;20219;-75
2023/09/28 14:21:39;;;;;;;3.53;3.23;;;;;;;;;;4893661;29;20564;-75
2023/09/28 14:24:06;;;;;;;6.77;3.60;;;;;;;;;;4895084;29;20192;-75
2023/09/28 14:26:35;;;;;;;3.67;3.17;;;;;;;;;;4895210;29;20211;-75
2023/09/28 14:29:01;;;;;;;2.90;2.70;;;;;;;;;;4895011;29;20223;-75
2023/09/28 14:31:28;;;;;;;3.27;2.70;;;;;;;;;;4894877;29;20429;-75
2023/09/28 14:33:54;;;;;;;4.57;3.47;;;;;;;;;;4893855;29;20189;-75
2023/09/28 14:36:22;;;;;;;3.73;3.20;;;;;;;;;;4896329;29;20187;-75
2023/09/28 14:38:51;;;;;;;5.03;3.53;;;;;;;;;;4897714;29;20199;-75
2023/09/28 14:41:18;;;;;;;3.93;3.10;;;;;;;;;;4898504;29;20664;-75
2023/09/28 14:43:46;;;;;;;3.60;3.00;;;;;;;;;;4898812;29;20196;-75